sensor_id;sensor_type;location;lat;lon;timestamp;P1;durP1;ratioP1;P2;durP2;ratioP2
33802;SDS011;20110;53.120;5.786;2022-08-05T00:01:12;19.75;;;7.15;;
33802;SDS011;20110;53.120;5.786;2022-08-05T00:03:44;13.82;;;6.35;;
33802;SDS011;20110;53.120;5.786;2022-08-05T00:06:15;12.10;;;6.25;;
33802;SDS011;20110;53.120;5.786;2022-08-05T00:08:42;8.95;;;5.68;;
33802;SDS011;20110;53.120;5.786;2022-08-05T00:11:09;7.45;;;4.90;;
33802;SDS011;20110;53.120;5.786;2022-08-05T00:13:39;11.00;;;5.95;;
33802;SDS011;20110;53.120;5.786;2022-08-05T00:16:11;15.05;;;5.97;;
33802;SDS011;20110;53.120;5.786;2022-08-05T00:18:41;12.73;;;5.95;;
33802;SDS011;20110;53.120;5.786;2022-08-05T00:21:10;8.80;;;5.97;;
33802;SDS011;20110;53.120;5.786;2022-08-05T00:23:38;13.18;;;5.78;;
33802;SDS011;20110;53.120;5.786;2022-08-05T00:26:04;9.57;;;5.72;;
33802;SDS011;20110;53.120;5.786;2022-08-05T00:28:31;10.88;;;5.47;;
33802;SDS011;20110;53.120;5.786;2022-08-05T00:30:58;15.02;;;5.40;;
33802;SDS011;20110;53.120;5.786;2022-08-05T00:33:24;8.13;;;4.97;;
33802;SDS011;20110;53.120;5.786;2022-08-05T00:35:50;9.15;;;4.78;;
33802;SDS011;20110;53.120;5.786;2022-08-05T00:38:15;7.95;;;4.28;;
33802;SDS011;20110;53.120;5.786;2022-08-05T00:40:49;11.25;;;4.80;;
33802;SDS011;20110;53.120;5.786;2022-08-05T00:43:18;11.93;;;4.40;;
33802;SDS011;20110;53.120;5.786;2022-08-05T00:45:44;15.65;;;4.05;;
33802;SDS011;20110;53.120;5.786;2022-08-05T00:48:12;5.60;;;4.10;;
33802;SDS011;20110;53.120;5.786;2022-08-05T00:50:42;5.97;;;3.95;;
33802;SDS011;20110;53.120;5.786;2022-08-05T00:53:10;4.38;;;3.97;;
33802;SDS011;20110;53.120;5.786;2022-08-05T00:55:36;4.85;;;3.60;;
33802;SDS011;20110;53.120;5.786;2022-08-05T00:58:02;6.28;;;3.85;;
33802;SDS011;20110;53.120;5.786;2022-08-05T01:00:29;10.55;;;3.75;;
33802;SDS011;20110;53.120;5.786;2022-08-05T01:02:56;6.18;;;4.32;;
33802;SDS011;20110;53.120;5.786;2022-08-05T01:05:23;9.25;;;3.92;;
33802;SDS011;20110;53.120;5.786;2022-08-05T01:07:49;8.50;;;4.78;;
33802;SDS011;20110;53.120;5.786;2022-08-05T01:10:17;5.72;;;5.13;;
33802;SDS011;20110;53.120;5.786;2022-08-05T01:12:51;5.68;;;5.18;;
33802;SDS011;20110;53.120;5.786;2022-08-05T01:15:24;9.02;;;5.93;;
33802;SDS011;20110;53.120;5.786;2022-08-05T01:18:02;7.43;;;5.53;;
33802;SDS011;20110;53.120;5.786;2022-08-05T01:20:49;8.43;;;5.63;;
33802;SDS011;20110;53.120;5.786;2022-08-05T01:26:20;6.25;;;5.60;;
33802;SDS011;20110;53.120;5.786;2022-08-05T01:28:52;10.98;;;6.25;;
33802;SDS011;20110;53.120;5.786;2022-08-05T01:31:40;14.68;;;6.57;;
33802;SDS011;20110;53.120;5.786;2022-08-05T01:34:14;8.63;;;5.10;;
33802;SDS011;20110;53.120;5.786;2022-08-05T01:36:55;17.70;;;5.72;;
33802;SDS011;20110;53.120;5.786;2022-08-05T01:39:29;14.73;;;6.53;;
33802;SDS011;20110;53.120;5.786;2022-08-05T01:41:57;13.73;;;6.63;;
33802;SDS011;20110;53.120;5.786;2022-08-05T01:44:25;9.43;;;5.97;;
33802;SDS011;20110;53.120;5.786;2022-08-05T01:46:52;6.60;;;5.95;;
33802;SDS011;20110;53.120;5.786;2022-08-05T01:49:21;9.40;;;6.15;;
33802;SDS011;20110;53.120;5.786;2022-08-05T01:51:52;9.10;;;6.18;;
33802;SDS011;20110;53.120;5.786;2022-08-05T01:54:25;14.63;;;6.85;;
33802;SDS011;20110;53.120;5.786;2022-08-05T01:56:57;7.18;;;6.13;;
33802;SDS011;20110;53.120;5.786;2022-08-05T01:59:25;9.73;;;6.55;;
33802;SDS011;20110;53.120;5.786;2022-08-05T02:01:55;7.40;;;6.65;;
33802;SDS011;20110;53.120;5.786;2022-08-05T02:04:25;10.65;;;5.72;;
33802;SDS011;20110;53.120;5.786;2022-08-05T02:06:55;8.65;;;6.03;;
33802;SDS011;20110;53.120;5.786;2022-08-05T02:09:22;14.20;;;6.78;;
33802;SDS011;20110;53.120;5.786;2022-08-05T02:11:50;10.02;;;5.50;;
33802;SDS011;20110;53.120;5.786;2022-08-05T02:14:27;7.38;;;6.03;;
33802;SDS011;20110;53.120;5.786;2022-08-05T02:17:08;7.40;;;6.10;;
33802;SDS011;20110;53.120;5.786;2022-08-05T02:19:45;12.52;;;6.50;;
33802;SDS011;20110;53.120;5.786;2022-08-05T02:22:24;9.88;;;6.18;;
33802;SDS011;20110;53.120;5.786;2022-08-05T02:25:01;9.60;;;6.28;;
33802;SDS011;20110;53.120;5.786;2022-08-05T02:27:48;12.60;;;6.65;;
33802;SDS011;20110;53.120;5.786;2022-08-05T02:30:17;14.95;;;7.15;;
33802;SDS011;20110;53.120;5.786;2022-08-05T02:32:45;9.55;;;6.43;;
33802;SDS011;20110;53.120;5.786;2022-08-05T02:35:18;9.55;;;6.53;;
33802;SDS011;20110;53.120;5.786;2022-08-05T02:37:47;11.38;;;6.75;;
33802;SDS011;20110;53.120;5.786;2022-08-05T02:40:17;13.15;;;6.13;;
33802;SDS011;20110;53.120;5.786;2022-08-05T02:42:45;8.25;;;6.20;;
33802;SDS011;20110;53.120;5.786;2022-08-05T02:45:13;10.18;;;6.50;;
33802;SDS011;20110;53.120;5.786;2022-08-05T02:47:41;8.00;;;5.88;;
33802;SDS011;20110;53.120;5.786;2022-08-05T02:50:09;9.32;;;7.15;;
33802;SDS011;20110;53.120;5.786;2022-08-05T02:52:38;13.52;;;6.90;;
33802;SDS011;20110;53.120;5.786;2022-08-05T02:55:06;13.88;;;7.28;;
33802;SDS011;20110;53.120;5.786;2022-08-05T02:57:34;12.18;;;6.72;;
33802;SDS011;20110;53.120;5.786;2022-08-05T03:00:03;8.85;;;6.60;;
33802;SDS011;20110;53.120;5.786;2022-08-05T03:02:33;10.45;;;6.75;;
33802;SDS011;20110;53.120;5.786;2022-08-05T03:05:05;10.68;;;7.22;;
33802;SDS011;20110;53.120;5.786;2022-08-05T03:07:34;9.40;;;7.03;;
33802;SDS011;20110;53.120;5.786;2022-08-05T03:10:01;11.40;;;7.28;;
33802;SDS011;20110;53.120;5.786;2022-08-05T03:12:37;9.75;;;7.30;;
33802;SDS011;20110;53.120;5.786;2022-08-05T03:15:05;8.18;;;6.47;;
33802;SDS011;20110;53.120;5.786;2022-08-05T03:17:33;19.05;;;7.93;;
33802;SDS011;20110;53.120;5.786;2022-08-05T03:20:00;9.80;;;7.35;;
33802;SDS011;20110;53.120;5.786;2022-08-05T03:22:26;12.55;;;7.15;;
33802;SDS011;20110;53.120;5.786;2022-08-05T03:24:52;8.57;;;7.15;;
33802;SDS011;20110;53.120;5.786;2022-08-05T03:27:19;10.93;;;7.85;;
33802;SDS011;20110;53.120;5.786;2022-08-05T03:29:46;9.00;;;6.90;;
33802;SDS011;20110;53.120;5.786;2022-08-05T03:32:12;9.70;;;6.93;;
33802;SDS011;20110;53.120;5.786;2022-08-05T03:34:43;7.40;;;6.72;;
33802;SDS011;20110;53.120;5.786;2022-08-05T03:37:10;11.73;;;7.10;;
33802;SDS011;20110;53.120;5.786;2022-08-05T03:39:36;11.73;;;7.50;;
33802;SDS011;20110;53.120;5.786;2022-08-05T03:42:02;10.45;;;6.53;;
33802;SDS011;20110;53.120;5.786;2022-08-05T03:44:28;14.63;;;7.07;;
33802;SDS011;20110;53.120;5.786;2022-08-05T03:46:56;11.50;;;7.55;;
33802;SDS011;20110;53.120;5.786;2022-08-05T03:49:21;8.80;;;7.40;;
33802;SDS011;20110;53.120;5.786;2022-08-05T03:51:49;13.27;;;6.95;;
33802;SDS011;20110;53.120;5.786;2022-08-05T03:54:27;8.43;;;6.72;;
33802;SDS011;20110;53.120;5.786;2022-08-05T03:56:59;12.27;;;6.85;;
33802;SDS011;20110;53.120;5.786;2022-08-05T03:59:33;9.90;;;6.85;;
33802;SDS011;20110;53.120;5.786;2022-08-05T04:02:06;9.02;;;5.95;;
33802;SDS011;20110;53.120;5.786;2022-08-05T04:04:35;7.38;;;6.68;;
33802;SDS011;20110;53.120;5.786;2022-08-05T04:07:02;10.68;;;6.47;;
33802;SDS011;20110;53.120;5.786;2022-08-05T04:09:30;10.50;;;6.50;;
33802;SDS011;20110;53.120;5.786;2022-08-05T04:11:57;9.05;;;7.18;;
33802;SDS011;20110;53.120;5.786;2022-08-05T04:14:24;10.27;;;6.75;;
33802;SDS011;20110;53.120;5.786;2022-08-05T04:16:51;8.18;;;6.72;;
33802;SDS011;20110;53.120;5.786;2022-08-05T04:19:18;8.05;;;6.32;;
33802;SDS011;20110;53.120;5.786;2022-08-05T04:21:44;12.05;;;7.60;;
33802;SDS011;20110;53.120;5.786;2022-08-05T04:24:10;10.13;;;6.70;;
33802;SDS011;20110;53.120;5.786;2022-08-05T04:26:36;9.20;;;6.55;;
33802;SDS011;20110;53.120;5.786;2022-08-05T04:29:02;6.28;;;5.68;;
33802;SDS011;20110;53.120;5.786;2022-08-05T04:31:28;8.30;;;6.85;;
33802;SDS011;20110;53.120;5.786;2022-08-05T04:33:54;9.77;;;6.10;;
33802;SDS011;20110;53.120;5.786;2022-08-05T04:36:19;9.32;;;6.13;;
33802;SDS011;20110;53.120;5.786;2022-08-05T04:38:45;10.65;;;6.22;;
33802;SDS011;20110;53.120;5.786;2022-08-05T04:41:11;5.75;;;5.25;;
33802;SDS011;20110;53.120;5.786;2022-08-05T04:43:37;11.65;;;6.47;;
33802;SDS011;20110;53.120;5.786;2022-08-05T04:46:03;8.07;;;5.80;;
33802;SDS011;20110;53.120;5.786;2022-08-05T04:48:29;10.00;;;6.15;;
33802;SDS011;20110;53.120;5.786;2022-08-05T04:50:56;10.75;;;5.55;;
33802;SDS011;20110;53.120;5.786;2022-08-05T04:53:22;8.07;;;6.15;;
33802;SDS011;20110;53.120;5.786;2022-08-05T04:55:48;8.38;;;5.65;;
33802;SDS011;20110;53.120;5.786;2022-08-05T04:58:14;8.43;;;5.60;;
33802;SDS011;20110;53.120;5.786;2022-08-05T05:00:42;7.65;;;5.72;;
33802;SDS011;20110;53.120;5.786;2022-08-05T05:03:09;6.85;;;4.90;;
33802;SDS011;20110;53.120;5.786;2022-08-05T05:05:36;6.65;;;5.30;;
33802;SDS011;20110;53.120;5.786;2022-08-05T05:08:03;6.55;;;4.20;;
33802;SDS011;20110;53.120;5.786;2022-08-05T05:10:41;5.63;;;5.03;;
33802;SDS011;20110;53.120;5.786;2022-08-05T05:13:10;12.18;;;5.30;;
33802;SDS011;20110;53.120;5.786;2022-08-05T05:15:38;5.72;;;5.03;;
33802;SDS011;20110;53.120;5.786;2022-08-05T05:18:06;7.20;;;4.78;;
33802;SDS011;20110;53.120;5.786;2022-08-05T05:20:33;5.68;;;5.13;;
33802;SDS011;20110;53.120;5.786;2022-08-05T05:23:00;11.82;;;6.28;;
33802;SDS011;20110;53.120;5.786;2022-08-05T05:25:31;14.05;;;6.35;;
33802;SDS011;20110;53.120;5.786;2022-08-05T05:27:57;7.28;;;6.18;;
33802;SDS011;20110;53.120;5.786;2022-08-05T05:30:23;6.35;;;5.75;;
33802;SDS011;20110;53.120;5.786;2022-08-05T05:32:49;6.80;;;5.82;;
33802;SDS011;20110;53.120;5.786;2022-08-05T05:35:15;9.27;;;5.65;;
33802;SDS011;20110;53.120;5.786;2022-08-05T05:37:45;6.35;;;5.85;;
33802;SDS011;20110;53.120;5.786;2022-08-05T05:40:24;10.07;;;6.43;;
33802;SDS011;20110;53.120;5.786;2022-08-05T05:42:52;9.23;;;7.47;;
33802;SDS011;20110;53.120;5.786;2022-08-05T05:45:18;7.88;;;7.07;;
33802;SDS011;20110;53.120;5.786;2022-08-05T05:47:45;8.18;;;7.13;;
33802;SDS011;20110;53.120;5.786;2022-08-05T05:50:12;11.68;;;7.25;;
33802;SDS011;20110;53.120;5.786;2022-08-05T05:52:41;8.75;;;7.53;;
33802;SDS011;20110;53.120;5.786;2022-08-05T05:55:09;11.95;;;7.50;;
33802;SDS011;20110;53.120;5.786;2022-08-05T05:57:38;11.05;;;7.40;;
33802;SDS011;20110;53.120;5.786;2022-08-05T06:00:08;9.05;;;7.68;;
33802;SDS011;20110;53.120;5.786;2022-08-05T06:02:38;9.68;;;6.90;;
33802;SDS011;20110;53.120;5.786;2022-08-05T06:05:09;11.35;;;7.10;;
33802;SDS011;20110;53.120;5.786;2022-08-05T06:07:36;11.35;;;6.25;;
33802;SDS011;20110;53.120;5.786;2022-08-05T06:10:04;5.85;;;4.57;;
33802;SDS011;20110;53.120;5.786;2022-08-05T06:12:35;5.38;;;4.88;;
33802;SDS011;20110;53.120;5.786;2022-08-05T06:15:03;6.70;;;4.68;;
33802;SDS011;20110;53.120;5.786;2022-08-05T06:17:30;5.82;;;4.40;;
33802;SDS011;20110;53.120;5.786;2022-08-05T06:19:57;5.18;;;3.60;;
33802;SDS011;20110;53.120;5.786;2022-08-05T06:22:25;4.50;;;3.25;;
33802;SDS011;20110;53.120;5.786;2022-08-05T06:24:53;3.85;;;3.05;;
33802;SDS011;20110;53.120;5.786;2022-08-05T06:27:19;8.02;;;2.85;;
33802;SDS011;20110;53.120;5.786;2022-08-05T06:29:45;7.38;;;2.60;;
33802;SDS011;20110;53.120;5.786;2022-08-05T06:32:11;2.63;;;1.88;;
33802;SDS011;20110;53.120;5.786;2022-08-05T06:34:37;4.85;;;1.42;;
33802;SDS011;20110;53.120;5.786;2022-08-05T06:37:03;2.83;;;1.83;;
33802;SDS011;20110;53.120;5.786;2022-08-05T06:39:29;5.60;;;1.83;;
33802;SDS011;20110;53.120;5.786;2022-08-05T06:41:55;3.33;;;1.70;;
33802;SDS011;20110;53.120;5.786;2022-08-05T06:44:22;2.33;;;1.73;;
33802;SDS011;20110;53.120;5.786;2022-08-05T06:46:48;3.65;;;1.08;;
33802;SDS011;20110;53.120;5.786;2022-08-05T06:49:14;2.97;;;1.20;;
33802;SDS011;20110;53.120;5.786;2022-08-05T06:51:39;4.68;;;1.20;;
33802;SDS011;20110;53.120;5.786;2022-08-05T06:54:05;4.40;;;1.00;;
33802;SDS011;20110;53.120;5.786;2022-08-05T06:56:31;3.05;;;1.10;;
33802;SDS011;20110;53.120;5.786;2022-08-05T06:58:57;1.35;;;0.82;;
33802;SDS011;20110;53.120;5.786;2022-08-05T07:01:23;6.13;;;0.93;;
33802;SDS011;20110;53.120;5.786;2022-08-05T07:03:49;3.85;;;1.00;;
33802;SDS011;20110;53.120;5.786;2022-08-05T07:06:14;0.90;;;0.60;;
33802;SDS011;20110;53.120;5.786;2022-08-05T07:08:42;7.35;;;0.93;;
33802;SDS011;20110;53.120;5.786;2022-08-05T07:11:09;3.80;;;0.70;;
33802;SDS011;20110;53.120;5.786;2022-08-05T07:13:35;4.40;;;0.85;;
33802;SDS011;20110;53.120;5.786;2022-08-05T07:16:19;3.95;;;0.93;;
33802;SDS011;20110;53.120;5.786;2022-08-05T07:19:04;2.53;;;1.00;;
33802;SDS011;20110;53.120;5.786;2022-08-05T07:21:31;1.60;;;0.70;;
33802;SDS011;20110;53.120;5.786;2022-08-05T07:23:56;2.85;;;1.02;;
33802;SDS011;20110;53.120;5.786;2022-08-05T07:26:22;1.45;;;0.75;;
33802;SDS011;20110;53.120;5.786;2022-08-05T07:28:48;2.65;;;0.90;;
33802;SDS011;20110;53.120;5.786;2022-08-05T07:31:18;1.95;;;0.75;;
33802;SDS011;20110;53.120;5.786;2022-08-05T07:33:44;3.05;;;0.90;;
33802;SDS011;20110;53.120;5.786;2022-08-05T07:36:09;3.28;;;0.73;;
33802;SDS011;20110;53.120;5.786;2022-08-05T07:38:37;3.25;;;0.68;;
33802;SDS011;20110;53.120;5.786;2022-08-05T07:41:03;3.80;;;0.68;;
33802;SDS011;20110;53.120;5.786;2022-08-05T07:43:31;5.97;;;0.73;;
33802;SDS011;20110;53.120;5.786;2022-08-05T07:45:57;4.28;;;0.57;;
33802;SDS011;20110;53.120;5.786;2022-08-05T07:48:23;1.67;;;0.60;;
33802;SDS011;20110;53.120;5.786;2022-08-05T07:50:49;6.15;;;0.95;;
33802;SDS011;20110;53.120;5.786;2022-08-05T07:53:14;1.98;;;0.50;;
33802;SDS011;20110;53.120;5.786;2022-08-05T07:55:40;1.45;;;0.47;;
33802;SDS011;20110;53.120;5.786;2022-08-05T07:58:06;2.63;;;0.90;;
33802;SDS011;20110;53.120;5.786;2022-08-05T08:00:32;3.85;;;0.60;;
33802;SDS011;20110;53.120;5.786;2022-08-05T08:02:58;1.30;;;0.60;;
33802;SDS011;20110;53.120;5.786;2022-08-05T08:05:23;1.10;;;0.50;;
33802;SDS011;20110;53.120;5.786;2022-08-05T08:07:51;3.45;;;0.85;;
33802;SDS011;20110;53.120;5.786;2022-08-05T08:10:19;3.30;;;0.50;;
33802;SDS011;20110;53.120;5.786;2022-08-05T08:12:46;6.72;;;0.45;;
33802;SDS011;20110;53.120;5.786;2022-08-05T08:15:14;3.22;;;0.65;;
33802;SDS011;20110;53.120;5.786;2022-08-05T08:17:39;7.35;;;0.50;;
33802;SDS011;20110;53.120;5.786;2022-08-05T08:20:05;7.05;;;0.90;;
33802;SDS011;20110;53.120;5.786;2022-08-05T08:22:32;4.00;;;0.40;;
33802;SDS011;20110;53.120;5.786;2022-08-05T08:24:58;3.08;;;0.52;;
33802;SDS011;20110;53.120;5.786;2022-08-05T08:27:24;1.67;;;0.35;;
33802;SDS011;20110;53.120;5.786;2022-08-05T08:29:50;3.17;;;0.60;;
33802;SDS011;20110;53.120;5.786;2022-08-05T08:32:16;3.53;;;0.52;;
33802;SDS011;20110;53.120;5.786;2022-08-05T08:34:42;0.98;;;0.25;;
33802;SDS011;20110;53.120;5.786;2022-08-05T08:37:08;0.93;;;0.30;;
33802;SDS011;20110;53.120;5.786;2022-08-05T08:39:34;1.77;;;0.68;;
33802;SDS011;20110;53.120;5.786;2022-08-05T08:42:00;2.35;;;0.43;;
33802;SDS011;20110;53.120;5.786;2022-08-05T08:44:28;2.13;;;1.20;;
33802;SDS011;20110;53.120;5.786;2022-08-05T08:46:56;3.70;;;0.30;;
33802;SDS011;20110;53.120;5.786;2022-08-05T08:49:23;1.13;;;0.45;;
33802;SDS011;20110;53.120;5.786;2022-08-05T08:51:58;3.78;;;0.57;;
33802;SDS011;20110;53.120;5.786;2022-08-05T08:54:35;3.15;;;0.30;;
33802;SDS011;20110;53.120;5.786;2022-08-05T08:57:01;0.30;;;0.20;;
33802;SDS011;20110;53.120;5.786;2022-08-05T08:59:30;0.85;;;0.20;;
33802;SDS011;20110;53.120;5.786;2022-08-05T09:01:56;2.10;;;0.35;;
33802;SDS011;20110;53.120;5.786;2022-08-05T09:04:22;5.88;;;0.47;;
33802;SDS011;20110;53.120;5.786;2022-08-05T09:06:49;2.10;;;0.40;;
33802;SDS011;20110;53.120;5.786;2022-08-05T09:09:14;1.45;;;0.30;;
33802;SDS011;20110;53.120;5.786;2022-08-05T09:11:40;1.35;;;0.30;;
33802;SDS011;20110;53.120;5.786;2022-08-05T09:14:06;0.75;;;0.38;;
33802;SDS011;20110;53.120;5.786;2022-08-05T09:16:32;0.65;;;0.17;;
33802;SDS011;20110;53.120;5.786;2022-08-05T09:18:58;0.20;;;0.20;;
33802;SDS011;20110;53.120;5.786;2022-08-05T09:21:24;0.45;;;0.10;;
33802;SDS011;20110;53.120;5.786;2022-08-05T09:24:02;1.55;;;0.43;;
33802;SDS011;20110;53.120;5.786;2022-08-05T09:26:34;1.50;;;0.20;;
33802;SDS011;20110;53.120;5.786;2022-08-05T09:29:02;3.03;;;0.50;;
33802;SDS011;20110;53.120;5.786;2022-08-05T09:31:32;5.28;;;0.30;;
33802;SDS011;20110;53.120;5.786;2022-08-05T09:34:00;0.32;;;0.28;;
33802;SDS011;20110;53.120;5.786;2022-08-05T09:36:40;0.30;;;0.10;;
33802;SDS011;20110;53.120;5.786;2022-08-05T09:39:08;0.52;;;0.20;;
33802;SDS011;20110;53.120;5.786;2022-08-05T09:47:12;1.75;;;0.30;;
33802;SDS011;20110;53.120;5.786;2022-08-05T09:49:48;0.70;;;0.30;;
33802;SDS011;20110;53.120;5.786;2022-08-05T09:52:21;0.43;;;0.20;;
33802;SDS011;20110;53.120;5.786;2022-08-05T09:55:06;2.10;;;0.43;;
33802;SDS011;20110;53.120;5.786;2022-08-05T10:00:11;0.90;;;0.30;;
33802;SDS011;20110;53.120;5.786;2022-08-05T10:02:45;0.52;;;0.20;;
33802;SDS011;20110;53.120;5.786;2022-08-05T10:10:24;1.52;;;0.40;;
33802;SDS011;20110;53.120;5.786;2022-08-05T10:12:56;3.40;;;0.20;;
33802;SDS011;20110;53.120;5.786;2022-08-05T10:20:44;2.90;;;0.30;;
33802;SDS011;20110;53.120;5.786;2022-08-05T10:28:19;5.10;;;0.50;;
33802;SDS011;20110;53.120;5.786;2022-08-05T10:30:45;2.83;;;0.40;;
33802;SDS011;20110;53.120;5.786;2022-08-05T10:33:11;0.63;;;0.30;;
33802;SDS011;20110;53.120;5.786;2022-08-05T10:35:37;4.15;;;0.43;;
33802;SDS011;20110;53.120;5.786;2022-08-05T10:38:03;0.75;;;0.20;;
33802;SDS011;20110;53.120;5.786;2022-08-05T10:40:33;0.90;;;0.20;;
33802;SDS011;20110;53.120;5.786;2022-08-05T10:46:09;3.55;;;0.40;;
33802;SDS011;20110;53.120;5.786;2022-08-05T10:48:42;1.40;;;0.30;;
33802;SDS011;20110;53.120;5.786;2022-08-05T10:51:14;0.73;;;0.30;;
33802;SDS011;20110;53.120;5.786;2022-08-05T10:56:16;1.65;;;0.30;;
33802;SDS011;20110;53.120;5.786;2022-08-05T11:01:26;1.13;;;0.30;;
33802;SDS011;20110;53.120;5.786;2022-08-05T11:04:02;0.75;;;0.28;;
33802;SDS011;20110;53.120;5.786;2022-08-05T11:07:02;0.57;;;0.30;;
33802;SDS011;20110;53.120;5.786;2022-08-05T11:09:22;1.85;;;0.38;;
33802;SDS011;20110;53.120;5.786;2022-08-05T11:11:51;0.45;;;0.30;;
33802;SDS011;20110;53.120;5.786;2022-08-05T11:14:24;0.63;;;0.50;;
33802;SDS011;20110;53.120;5.786;2022-08-05T11:19:56;0.60;;;0.30;;
33802;SDS011;20110;53.120;5.786;2022-08-05T11:22:42;4.97;;;0.65;;
33802;SDS011;20110;53.120;5.786;2022-08-05T11:33:29;1.90;;;0.30;;
33802;SDS011;20110;53.120;5.786;2022-08-05T11:39:08;1.25;;;0.30;;
33802;SDS011;20110;53.120;5.786;2022-08-05T11:41:39;1.10;;;0.60;;
33802;SDS011;20110;53.120;5.786;2022-08-05T11:44:08;0.40;;;0.30;;
33802;SDS011;20110;53.120;5.786;2022-08-05T11:49:14;0.30;;;0.30;;
33802;SDS011;20110;53.120;5.786;2022-08-05T11:51:44;0.93;;;0.47;;
33802;SDS011;20110;53.120;5.786;2022-08-05T11:54:12;0.35;;;0.30;;
33802;SDS011;20110;53.120;5.786;2022-08-05T11:56:49;0.60;;;0.20;;
33802;SDS011;20110;53.120;5.786;2022-08-05T11:59:22;0.43;;;0.40;;
33802;SDS011;20110;53.120;5.786;2022-08-05T12:01:51;0.50;;;0.20;;
33802;SDS011;20110;53.120;5.786;2022-08-05T12:04:18;0.47;;;0.30;;
33802;SDS011;20110;53.120;5.786;2022-08-05T12:06:43;1.00;;;0.30;;
33802;SDS011;20110;53.120;5.786;2022-08-05T12:09:10;0.52;;;0.20;;
33802;SDS011;20110;53.120;5.786;2022-08-05T12:11:35;1.00;;;0.30;;
33802;SDS011;20110;53.120;5.786;2022-08-05T12:14:05;1.27;;;0.22;;
33802;SDS011;20110;53.120;5.786;2022-08-05T12:16:36;0.20;;;0.20;;
33802;SDS011;20110;53.120;5.786;2022-08-05T12:19:07;0.50;;;0.40;;
33802;SDS011;20110;53.120;5.786;2022-08-05T12:21:46;0.40;;;0.20;;
33802;SDS011;20110;53.120;5.786;2022-08-05T12:24:17;0.90;;;0.30;;
33802;SDS011;20110;53.120;5.786;2022-08-05T12:26:46;1.13;;;0.47;;
33802;SDS011;20110;53.120;5.786;2022-08-05T12:29:21;1.15;;;0.50;;
33802;SDS011;20110;53.120;5.786;2022-08-05T12:31:55;0.47;;;0.35;;
33802;SDS011;20110;53.120;5.786;2022-08-05T12:34:25;1.30;;;0.28;;
33802;SDS011;20110;53.120;5.786;2022-08-05T12:37:02;1.33;;;0.50;;
33802;SDS011;20110;53.120;5.786;2022-08-05T12:39:38;0.40;;;0.40;;
33802;SDS011;20110;53.120;5.786;2022-08-05T12:42:08;0.82;;;0.40;;
33802;SDS011;20110;53.120;5.786;2022-08-05T12:44:41;0.60;;;0.30;;
33802;SDS011;20110;53.120;5.786;2022-08-05T12:47:08;1.00;;;0.20;;
33802;SDS011;20110;53.120;5.786;2022-08-05T12:49:47;3.85;;;0.20;;
33802;SDS011;20110;53.120;5.786;2022-08-05T12:52:13;0.45;;;0.30;;
33802;SDS011;20110;53.120;5.786;2022-08-05T12:54:42;0.55;;;0.20;;
33802;SDS011;20110;53.120;5.786;2022-08-05T12:57:12;1.63;;;0.40;;
33802;SDS011;20110;53.120;5.786;2022-08-05T13:02:20;9.05;;;1.00;;
33802;SDS011;20110;53.120;5.786;2022-08-05T13:04:49;6.70;;;1.50;;
33802;SDS011;20110;53.120;5.786;2022-08-05T13:07:21;3.30;;;0.73;;
33802;SDS011;20110;53.120;5.786;2022-08-05T13:09:54;3.00;;;0.88;;
33802;SDS011;20110;53.120;5.786;2022-08-05T13:12:23;3.58;;;1.13;;
33802;SDS011;20110;53.120;5.786;2022-08-05T13:14:51;4.05;;;1.13;;
33802;SDS011;20110;53.120;5.786;2022-08-05T13:17:23;5.95;;;0.75;;
33802;SDS011;20110;53.120;5.786;2022-08-05T13:22:31;6.50;;;0.80;;
33802;SDS011;20110;53.120;5.786;2022-08-05T13:25:01;3.88;;;0.80;;
33802;SDS011;20110;53.120;5.786;2022-08-05T13:27:33;1.80;;;0.65;;
33802;SDS011;20110;53.120;5.786;2022-08-05T13:30:04;1.23;;;0.60;;
33802;SDS011;20110;53.120;5.786;2022-08-05T13:32:35;1.23;;;0.30;;
33802;SDS011;20110;53.120;5.786;2022-08-05T13:35:03;2.83;;;0.40;;
33802;SDS011;20110;53.120;5.786;2022-08-05T13:37:30;1.90;;;0.32;;
33802;SDS011;20110;53.120;5.786;2022-08-05T13:39:59;4.35;;;0.50;;
33802;SDS011;20110;53.120;5.786;2022-08-05T13:42:24;0.85;;;0.38;;
33802;SDS011;20110;53.120;5.786;2022-08-05T13:44:51;1.02;;;0.28;;
33802;SDS011;20110;53.120;5.786;2022-08-05T13:47:21;2.60;;;0.43;;
33802;SDS011;20110;53.120;5.786;2022-08-05T13:49:49;3.45;;;0.32;;
33802;SDS011;20110;53.120;5.786;2022-08-05T13:52:17;2.70;;;0.55;;
33802;SDS011;20110;53.120;5.786;2022-08-05T13:54:53;0.90;;;0.52;;
33802;SDS011;20110;53.120;5.786;2022-08-05T13:57:21;0.52;;;0.30;;
33802;SDS011;20110;53.120;5.786;2022-08-05T13:59:47;2.08;;;0.32;;
33802;SDS011;20110;53.120;5.786;2022-08-05T14:02:14;3.85;;;0.40;;
33802;SDS011;20110;53.120;5.786;2022-08-05T14:04:42;4.43;;;0.45;;
33802;SDS011;20110;53.120;5.786;2022-08-05T14:07:29;2.85;;;0.50;;
33802;SDS011;20110;53.120;5.786;2022-08-05T14:10:07;2.30;;;0.55;;
33802;SDS011;20110;53.120;5.786;2022-08-05T14:12:41;3.38;;;0.30;;
33802;SDS011;20110;53.120;5.786;2022-08-05T14:15:07;1.70;;;0.50;;
33802;SDS011;20110;53.120;5.786;2022-08-05T14:17:35;1.02;;;0.30;;
33802;SDS011;20110;53.120;5.786;2022-08-05T14:20:00;1.88;;;0.50;;
33802;SDS011;20110;53.120;5.786;2022-08-05T14:22:28;0.30;;;0.30;;
33802;SDS011;20110;53.120;5.786;2022-08-05T14:24:54;1.63;;;0.60;;
33802;SDS011;20110;53.120;5.786;2022-08-05T14:27:20;3.83;;;0.60;;
33802;SDS011;20110;53.120;5.786;2022-08-05T14:29:45;1.75;;;0.40;;
33802;SDS011;20110;53.120;5.786;2022-08-05T14:32:11;3.00;;;0.30;;
33802;SDS011;20110;53.120;5.786;2022-08-05T14:34:37;2.63;;;0.45;;
33802;SDS011;20110;53.120;5.786;2022-08-05T14:37:03;4.38;;;0.60;;
33802;SDS011;20110;53.120;5.786;2022-08-05T14:39:29;3.20;;;0.60;;
33802;SDS011;20110;53.120;5.786;2022-08-05T14:41:58;1.45;;;0.40;;
33802;SDS011;20110;53.120;5.786;2022-08-05T14:44:24;1.65;;;0.60;;
33802;SDS011;20110;53.120;5.786;2022-08-05T14:46:50;2.60;;;0.43;;
33802;SDS011;20110;53.120;5.786;2022-08-05T14:49:20;1.10;;;0.38;;
33802;SDS011;20110;53.120;5.786;2022-08-05T14:51:46;2.30;;;0.70;;
33802;SDS011;20110;53.120;5.786;2022-08-05T14:54:12;2.53;;;0.32;;
33802;SDS011;20110;53.120;5.786;2022-08-05T14:56:38;1.48;;;0.60;;
33802;SDS011;20110;53.120;5.786;2022-08-05T14:59:04;0.93;;;0.50;;
33802;SDS011;20110;53.120;5.786;2022-08-05T15:01:30;2.20;;;0.32;;
33802;SDS011;20110;53.120;5.786;2022-08-05T15:03:56;1.27;;;0.30;;
33802;SDS011;20110;53.120;5.786;2022-08-05T15:06:21;1.65;;;0.20;;
33802;SDS011;20110;53.120;5.786;2022-08-05T15:08:47;1.33;;;0.40;;
33802;SDS011;20110;53.120;5.786;2022-08-05T15:11:14;0.98;;;0.40;;
33802;SDS011;20110;53.120;5.786;2022-08-05T15:13:40;2.33;;;0.43;;
33802;SDS011;20110;53.120;5.786;2022-08-05T15:16:06;1.30;;;0.30;;
33802;SDS011;20110;53.120;5.786;2022-08-05T15:18:32;1.65;;;0.30;;
33802;SDS011;20110;53.120;5.786;2022-08-05T15:20:59;2.28;;;0.43;;
33802;SDS011;20110;53.120;5.786;2022-08-05T15:23:25;2.25;;;0.38;;
33802;SDS011;20110;53.120;5.786;2022-08-05T15:25:50;1.85;;;0.35;;
33802;SDS011;20110;53.120;5.786;2022-08-05T15:28:16;3.92;;;0.30;;
33802;SDS011;20110;53.120;5.786;2022-08-05T15:30:46;0.80;;;0.40;;
33802;SDS011;20110;53.120;5.786;2022-08-05T15:33:12;1.77;;;0.55;;
33802;SDS011;20110;53.120;5.786;2022-08-05T15:35:41;1.52;;;0.50;;
33802;SDS011;20110;53.120;5.786;2022-08-05T15:38:07;1.58;;;0.30;;
33802;SDS011;20110;53.120;5.786;2022-08-05T15:40:32;5.05;;;0.50;;
33802;SDS011;20110;53.120;5.786;2022-08-05T15:42:58;0.32;;;0.20;;
33802;SDS011;20110;53.120;5.786;2022-08-05T15:45:25;3.63;;;0.70;;
33802;SDS011;20110;53.120;5.786;2022-08-05T15:47:51;2.85;;;0.60;;
33802;SDS011;20110;53.120;5.786;2022-08-05T15:50:19;2.10;;;0.50;;
33802;SDS011;20110;53.120;5.786;2022-08-05T15:52:47;1.67;;;0.43;;